createdAt,value
2018-04-24T00:01:51.001Z,90.50
2018-04-24T00:04:19.172Z,90.50
2018-04-24T00:06:47.281Z,90.40
2018-04-24T00:09:15.528Z,90.60
2018-04-24T00:11:43.684Z,90.60
2018-04-24T00:14:12.658Z,90.50
2018-04-24T00:16:41.551Z,90.40
2018-04-24T00:19:10.452Z,90.50
2018-04-24T00:21:38.607Z,90.50
2018-04-24T00:24:07.502Z,90.40
2018-04-24T00:26:36.484Z,90.40
2018-04-24T00:29:04.638Z,90.40
2018-04-24T00:31:32.834Z,90.40
2018-04-24T00:34:01.824Z,90.60
2018-04-24T00:36:30.711Z,90.50
2018-04-24T00:38:59.657Z,90.50
2018-04-24T00:41:27.879Z,90.40
2018-04-24T00:43:56.772Z,90.20
2018-04-24T00:46:25.660Z,90.40
2018-04-24T00:48:54.579Z,90.60
2018-04-24T00:51:22.713Z,90.80
2018-04-24T00:53:51.616Z,90.50
2018-04-24T00:56:20.537Z,90.50
2018-04-24T00:58:48.651Z,90.50
2018-04-24T01:01:16.795Z,90.30
2018-04-24T01:03:44.923Z,90.50
2018-04-24T01:06:13.085Z,90.50
2018-04-24T01:08:41.247Z,90.50
2018-04-24T01:11:10.154Z,90.40
2018-04-24T01:13:39.120Z,90.80
2018-04-24T01:16:08.022Z,90.50
2018-04-24T01:18:36.916Z,90.50
2018-04-24T01:21:05.822Z,90.50
2018-04-24T01:23:34.695Z,90.40
2018-04-24T01:26:03.609Z,90.40
2018-04-24T01:28:31.728Z,90.40
2018-04-24T01:30:59.939Z,90.50
2018-04-24T01:33:28.823Z,90.30
2018-04-24T01:35:57.706Z,90.30
2018-04-24T01:38:26.598Z,90.40
2018-04-24T01:40:55.593Z,90.40
2018-04-24T01:43:24.474Z,90.50
2018-04-24T01:45:53.374Z,90.60
2018-04-24T01:48:22.293Z,90.50
2018-04-24T01:50:50.416Z,90.50
2018-04-24T01:53:18.535Z,90.60
2018-04-24T01:55:46.664Z,90.60
2018-04-24T01:58:15.553Z,90.50
2018-04-24T02:00:44.455Z,90.50
2018-04-24T02:03:13.348Z,90.60
2018-04-24T02:05:41.479Z,90.60
2018-04-24T02:08:09.594Z,90.70
2018-04-24T02:10:37.735Z,91.00
2018-04-24T02:13:06.636Z,91.70
2018-04-24T02:15:35.531Z,91.60
2018-04-24T02:18:04.422Z,91.60
2018-04-24T02:20:32.598Z,91.60
2018-04-24T02:23:00.754Z,91.40
2018-04-24T02:25:29.746Z,91.60
2018-04-24T02:27:58.638Z,91.50
2018-04-24T02:30:27.540Z,91.50
2018-04-24T02:32:55.662Z,91.50
2018-04-24T02:35:23.786Z,91.50
2018-04-24T02:37:52.919Z,91.20
2018-04-24T02:40:21.106Z,91.20
2018-04-24T02:42:49.197Z,91.10
2018-04-24T02:45:17.375Z,91.00
2018-04-24T02:47:45.491Z,90.80
2018-04-24T02:50:13.752Z,91.00
2018-04-24T02:52:41.880Z,91.00
2018-04-24T02:55:09.999Z,91.10
2018-04-24T02:57:38.133Z,91.20
2018-04-24T03:00:07.046Z,91.10
2018-04-24T03:02:35.177Z,91.10
2018-04-24T03:05:03.314Z,91.00
2018-04-24T03:07:31.447Z,91.00
2018-04-24T03:10:00.360Z,91.10
2018-04-24T03:12:30.459Z,91.10
2018-04-24T03:14:59.347Z,91.20
2018-04-24T03:17:27.522Z,91.20
2018-04-24T03:19:55.645Z,91.10
2018-04-24T03:22:23.855Z,91.10
2018-04-24T03:24:52.750Z,91.20
2018-04-24T03:27:21.654Z,91.20
2018-04-24T03:29:49.831Z,91.20
2018-04-24T03:32:17.957Z,91.10
2018-04-24T03:34:46.090Z,91.10
2018-04-24T03:37:14.250Z,91.10
2018-04-24T03:39:42.397Z,91.10
2018-04-24T03:42:11.295Z,91.10
2018-04-24T03:44:39.447Z,91.10
2018-04-24T03:47:07.580Z,91.00
2018-04-24T03:49:35.719Z,91.00
2018-04-24T03:52:03.845Z,91.00
2018-04-24T03:54:32.015Z,91.00
2018-04-24T03:57:00.230Z,91.30
2018-04-24T03:59:28.391Z,91.40
2018-04-24T04:01:57.283Z,91.60
2018-04-24T04:04:25.410Z,91.60
2018-04-24T04:06:53.551Z,91.70
2018-04-24T04:09:21.671Z,91.50
2018-04-24T04:11:49.825Z,91.40
2018-04-24T04:14:17.951Z,91.40
2018-04-24T04:16:46.091Z,91.40
2018-04-24T04:19:26.123Z,91.70
2018-04-24T04:22:06.228Z,91.50
2018-04-24T04:24:49.352Z,91.60
2018-04-24T04:27:17.519Z,91.60
2018-04-24T04:29:45.652Z,91.60
2018-04-24T04:32:15.305Z,91.80
2018-04-24T04:34:43.438Z,91.80
2018-04-24T04:37:13.103Z,91.80
2018-04-24T04:39:41.219Z,91.70
2018-04-24T04:42:09.355Z,91.70
2018-04-24T04:44:37.587Z,91.80
2018-04-24T04:47:05.739Z,91.40
2018-04-24T04:49:33.923Z,91.30
2018-04-24T04:52:02.823Z,91.10
2018-04-24T04:54:31.739Z,91.10
2018-04-24T04:56:59.899Z,91.10
2018-04-24T04:59:28.027Z,91.10
2018-04-24T05:01:56.182Z,91.00
2018-04-24T05:04:24.480Z,91.20
2018-04-24T05:06:53.306Z,91.10
2018-04-24T05:09:21.452Z,91.00
2018-04-24T05:11:50.351Z,91.10
2018-04-24T05:14:19.348Z,90.70
2018-04-24T05:16:47.474Z,90.70
2018-04-24T05:19:15.622Z,90.60
2018-04-24T05:21:43.775Z,90.60
2018-04-24T05:24:11.908Z,90.50
2018-04-24T05:26:40.825Z,90.80
2018-04-24T05:29:08.951Z,90.80
2018-04-24T05:31:37.877Z,90.70
2018-04-24T05:34:06.903Z,90.50
2018-04-24T05:36:35.049Z,90.50
2018-04-24T05:39:03.200Z,90.30
2018-04-24T05:41:31.311Z,90.10
2018-04-24T05:43:59.464Z,90.00
2018-04-24T05:46:27.632Z,89.80
2018-04-24T05:48:56.510Z,89.90
2018-04-24T05:51:25.409Z,89.80
2018-04-24T05:53:54.387Z,89.80
2018-04-24T05:56:23.267Z,89.40
2018-04-24T05:58:51.463Z,89.30
2018-04-24T06:01:20.379Z,88.90
2018-04-24T06:03:48.501Z,88.90
2018-04-24T06:06:17.030Z,88.30
2018-04-24T06:08:45.132Z,87.90
2018-04-24T06:11:13.337Z,87.60
2018-04-24T06:13:42.232Z,87.70
2018-04-24T06:16:11.123Z,86.10
2018-04-24T06:18:40.035Z,86.10
2018-04-24T06:21:08.999Z,85.90
2018-04-24T06:23:38.187Z,85.00
2018-04-24T06:26:07.093Z,84.90
2018-04-24T06:28:36.210Z,85.40
2018-04-24T06:31:04.231Z,85.30
2018-04-24T06:33:32.355Z,85.20
2018-04-24T06:36:00.520Z,85.30
2018-04-24T06:38:29.479Z,86.20
2018-04-24T06:40:58.471Z,84.90
2018-04-24T06:43:27.376Z,84.30
2018-04-24T06:45:55.574Z,84.30
2018-04-24T06:48:23.714Z,84.50
2018-04-24T06:50:52.606Z,84.50
2018-04-24T06:53:21.502Z,83.50
2018-04-24T06:55:49.624Z,83.50
2018-04-24T06:58:19.278Z,82.30
2018-04-24T07:00:48.354Z,81.70
2018-04-24T07:03:16.408Z,81.70
2018-04-24T07:05:44.598Z,81.30
2018-04-24T07:08:13.504Z,80.10
2018-04-24T07:10:41.637Z,80.10
2018-04-24T07:13:09.799Z,79.40
2018-04-24T07:15:37.916Z,79.30
2018-04-24T07:18:06.077Z,80.00
2018-04-24T07:20:35.071Z,79.80
2018-04-24T07:23:03.976Z,79.70
2018-04-24T07:25:32.152Z,79.70
2018-04-24T07:28:01.013Z,79.10
2018-04-24T07:30:29.910Z,78.70
2018-04-24T07:32:58.952Z,78.00
2018-04-24T07:35:27.014Z,77.90
2018-04-24T07:37:55.139Z,79.10
2018-04-24T07:40:24.135Z,78.20
2018-04-24T07:42:53.046Z,78.40
2018-04-24T07:45:21.158Z,78.30
2018-04-24T07:47:49.317Z,78.30
2018-04-24T07:50:17.441Z,77.70
2018-04-24T07:52:46.339Z,77.80
2018-04-24T07:55:15.122Z,77.80
2018-04-24T07:57:44.000Z,77.80
2018-04-24T08:00:14.185Z,76.70
2018-04-24T08:02:42.301Z,76.60
2018-04-24T08:05:10.453Z,76.20
2018-04-24T08:07:38.585Z,75.00
2018-04-24T08:10:06.809Z,74.80
2018-04-24T08:12:35.764Z,73.60
2018-04-24T08:15:03.877Z,72.40
2018-04-24T08:17:32.015Z,71.50
2018-04-24T08:20:00.155Z,70.50
2018-04-24T08:22:41.317Z,69.20
2018-04-24T08:25:09.450Z,68.10
2018-04-24T08:27:38.453Z,68.80
2018-04-24T08:30:07.351Z,69.60
2018-04-24T08:32:35.492Z,69.70
2018-04-24T08:35:03.647Z,69.10
2018-04-24T08:37:31.888Z,69.60
2018-04-24T08:40:00.091Z,70.30
2018-04-24T08:42:28.225Z,71.10
2018-04-24T08:44:56.341Z,71.10
2018-04-24T08:47:24.485Z,69.80
2018-04-24T08:49:52.729Z,68.70
2018-04-24T08:52:21.612Z,69.00
2018-04-24T08:54:50.511Z,65.80
2018-04-24T08:57:18.632Z,65.70
2018-04-24T08:59:46.859Z,68.10
2018-04-24T09:02:14.994Z,65.90
2018-04-24T09:04:43.231Z,65.20
2018-04-24T09:07:11.361Z,63.80
2018-04-24T09:09:40.283Z,65.70
2018-04-24T09:12:08.411Z,65.60
2018-04-24T09:14:37.303Z,63.20
2018-04-24T09:17:06.229Z,63.00
2018-04-24T09:19:34.351Z,63.00
2018-04-24T09:22:02.478Z,61.90
2018-04-24T09:24:30.608Z,62.50
2018-04-24T09:26:59.581Z,61.10
2018-04-24T09:29:27.686Z,61.00
2018-04-24T09:31:55.838Z,61.80
2018-04-24T09:34:24.775Z,58.30
2018-04-24T09:36:52.887Z,58.30
2018-04-24T09:39:21.075Z,58.50
2018-04-24T09:41:50.068Z,60.70
2018-04-24T09:44:19.064Z,59.80
2018-04-24T09:46:47.977Z,59.20
2018-04-24T09:49:16.156Z,59.20
2018-04-24T09:51:44.292Z,58.20
2018-04-24T09:54:13.184Z,58.70
2018-04-24T09:56:42.227Z,56.00
2018-04-24T09:59:11.070Z,56.20
2018-04-24T10:01:40.093Z,55.10
2018-04-24T10:04:08.988Z,55.50
2018-04-24T10:06:37.095Z,55.50
2018-04-24T10:09:06.119Z,54.80
2018-04-24T10:11:34.271Z,55.20
2018-04-24T10:14:02.385Z,55.50
2018-04-24T10:16:30.521Z,55.20
2018-04-24T10:18:59.464Z,55.50
2018-04-24T10:21:28.315Z,54.80
2018-04-24T10:23:57.223Z,53.40
2018-04-24T10:26:25.337Z,53.40
2018-04-24T10:28:53.464Z,52.80
2018-04-24T10:31:21.593Z,52.60
2018-04-24T10:33:49.715Z,52.70
2018-04-24T10:36:17.857Z,52.80
2018-04-24T10:38:46.747Z,51.50
2018-04-24T10:41:15.627Z,49.20
2018-04-24T10:43:44.538Z,48.20
2018-04-24T10:46:13.440Z,48.90
2018-04-24T10:48:41.576Z,48.90
2018-04-24T10:51:10.511Z,48.30
2018-04-24T10:53:38.645Z,48.90
2018-04-24T10:56:07.621Z,47.10
2018-04-24T10:58:35.807Z,46.50
2018-04-24T11:01:04.720Z,46.70
2018-04-24T11:03:33.577Z,42.40
2018-04-24T11:06:03.323Z,43.10
2018-04-24T11:08:31.479Z,43.10
2018-04-24T11:11:00.392Z,44.20
2018-04-24T11:13:28.509Z,44.20
2018-04-24T11:15:56.644Z,44.30
2018-04-24T11:18:24.788Z,44.50
2018-04-24T11:20:53.698Z,42.40
2018-04-24T11:23:21.857Z,42.40
2018-04-24T11:25:50.751Z,41.60
2018-04-24T11:28:19.639Z,40.50
2018-04-24T11:30:48.545Z,41.40
2018-04-24T11:33:16.714Z,41.30
2018-04-24T11:35:45.696Z,41.90
2018-04-24T11:38:14.582Z,42.00
2018-04-24T11:40:43.496Z,41.10
2018-04-24T11:43:11.635Z,41.00
2018-04-24T11:45:41.384Z,41.20
2018-04-24T11:48:10.397Z,40.50
2018-04-24T11:50:38.629Z,40.30
2018-04-24T11:53:07.547Z,38.40
2018-04-24T11:55:35.683Z,38.30
2018-04-24T11:58:03.890Z,39.40
2018-04-24T12:00:32.052Z,39.30
2018-04-24T12:03:00.147Z,39.40
2018-04-24T12:05:28.281Z,39.40
2018-04-24T12:07:57.188Z,39.20
2018-04-24T12:10:25.351Z,39.20
2018-04-24T12:12:53.503Z,40.70
2018-04-24T12:15:21.683Z,39.20
2018-04-24T12:17:50.571Z,40.70
2018-04-24T12:20:18.695Z,40.60
2018-04-24T12:22:46.844Z,40.00
2018-04-24T12:25:15.761Z,40.30
2018-04-24T12:27:43.903Z,40.30
2018-04-24T12:30:12.766Z,39.10
2018-04-24T12:32:41.688Z,39.30
2018-04-24T12:35:09.796Z,39.20
2018-04-24T12:37:38.018Z,39.30
2018-04-24T12:40:06.903Z,38.40
2018-04-24T12:42:35.809Z,37.20
2018-04-24T12:45:03.973Z,37.00
2018-04-24T12:47:32.850Z,36.60
2018-04-24T12:50:01.759Z,37.50
2018-04-24T12:52:29.897Z,37.40
2018-04-24T12:54:58.135Z,36.30
2018-04-24T12:57:26.258Z,36.60
2018-04-24T12:59:54.436Z,36.80
2018-04-24T13:02:23.340Z,36.20
2018-04-24T13:04:51.483Z,36.00
2018-04-24T13:07:19.599Z,35.00
2018-04-24T13:09:47.823Z,35.80
2018-04-24T13:12:16.634Z,35.10
2018-04-24T13:14:45.522Z,34.60
2018-04-24T13:17:14.505Z,34.70
2018-04-24T13:19:43.393Z,33.90
2018-04-24T13:22:12.298Z,35.10
2018-04-24T13:24:41.178Z,34.80
2018-04-24T13:27:10.076Z,32.90
2018-04-24T13:29:39.065Z,34.00
2018-04-24T13:32:07.975Z,33.50
2018-04-24T13:34:36.110Z,33.40
2018-04-24T13:37:04.245Z,33.80
2018-04-24T13:39:32.362Z,34.50
2018-04-24T13:42:01.289Z,32.60
2018-04-24T13:44:29.443Z,32.60
2018-04-24T13:46:57.581Z,32.70
2018-04-24T13:49:25.707Z,31.90
2018-04-24T13:51:53.834Z,32.60
2018-04-24T13:54:22.738Z,30.90
2018-04-24T13:56:50.892Z,30.70
2018-04-24T13:59:19.801Z,32.00
2018-04-24T14:01:47.917Z,32.00
2018-04-24T14:04:16.047Z,31.60
2018-04-24T14:06:44.177Z,32.20
2018-04-24T14:09:12.307Z,31.60
2018-04-24T14:11:40.432Z,30.70
2018-04-24T14:14:08.593Z,29.60
2018-04-24T14:16:37.428Z,29.00
2018-04-24T14:19:05.556Z,28.10
2018-04-24T14:21:33.735Z,27.50
2018-04-24T14:24:01.861Z,27.40
2018-04-24T14:26:29.973Z,26.60
2018-04-24T14:28:58.871Z,25.50
2018-04-24T14:31:27.769Z,23.90
2018-04-24T14:33:56.663Z,24.50
2018-04-24T14:36:24.828Z,24.40
2018-04-24T14:38:53.735Z,23.60
2018-04-24T14:41:21.870Z,23.60
2018-04-24T14:43:49.990Z,23.50
2018-04-24T14:46:18.163Z,24.00
2018-04-24T14:48:47.141Z,24.00
2018-04-24T14:51:16.002Z,23.50
2018-04-24T14:53:44.906Z,23.20
2018-04-24T14:56:13.956Z,23.40
2018-04-24T14:58:42.090Z,23.40
2018-04-24T15:01:10.208Z,24.20
2018-04-24T15:03:39.878Z,24.10
2018-04-24T15:06:07.998Z,24.10
2018-04-24T15:08:36.185Z,23.70
2018-04-24T15:11:05.069Z,23.00
2018-04-24T15:13:34.071Z,22.40
2018-04-24T15:16:02.265Z,22.40
2018-04-24T15:18:30.435Z,21.80
2018-04-24T15:20:58.747Z,21.40
2018-04-24T15:23:26.977Z,21.10
2018-04-24T15:25:55.131Z,21.10
2018-04-24T15:28:24.031Z,20.60
2018-04-24T15:30:52.281Z,20.50
2018-04-24T15:33:21.287Z,21.00
2018-04-24T15:35:50.170Z,21.00
2018-04-24T15:38:19.081Z,21.00
2018-04-24T15:40:47.223Z,21.00
2018-04-24T15:43:15.411Z,20.90
2018-04-24T15:45:43.575Z,21.30
2018-04-24T15:48:12.469Z,20.80
2018-04-24T15:50:40.599Z,20.80
2018-04-24T15:53:08.815Z,21.40
2018-04-24T15:55:36.946Z,22.20
2018-04-24T15:58:05.090Z,21.80
2018-04-24T16:00:33.250Z,21.80
2018-04-24T16:03:02.128Z,21.40
2018-04-24T16:05:30.378Z,21.40
2018-04-24T16:07:59.283Z,21.00
2018-04-24T16:10:28.180Z,21.80
2018-04-24T16:12:56.308Z,21.80
2018-04-24T16:15:24.455Z,22.20
2018-04-24T16:17:52.591Z,23.20
2018-04-24T16:20:20.772Z,24.60
2018-04-24T16:22:48.933Z,25.90
2018-04-24T16:25:17.090Z,26.40
2018-04-24T16:27:45.975Z,28.50
2018-04-24T16:30:14.974Z,29.40
2018-04-24T16:32:43.854Z,29.80
2018-04-24T16:35:12.755Z,30.10
2018-04-24T16:37:41.660Z,30.80
2018-04-24T16:40:09.797Z,30.70
2018-04-24T16:42:37.921Z,31.50
2018-04-24T16:45:06.059Z,32.10
2018-04-24T16:47:34.198Z,31.50
2018-04-24T16:50:02.375Z,31.30
2018-04-24T16:52:30.507Z,32.10
2018-04-24T16:54:58.664Z,32.50
2018-04-24T16:57:27.567Z,33.50
2018-04-24T16:59:55.707Z,33.50
2018-04-24T17:02:24.615Z,33.70
2018-04-24T17:04:52.762Z,33.70
2018-04-24T17:07:20.884Z,34.20
2018-04-24T17:09:49.027Z,34.50
2018-04-24T17:12:17.252Z,35.00
2018-04-24T17:14:45.398Z,35.10
2018-04-24T17:17:13.519Z,35.00
2018-04-24T17:19:41.672Z,34.50
2018-04-24T17:22:09.822Z,34.40
2018-04-24T17:24:37.956Z,34.70
2018-04-24T17:27:06.860Z,35.30
2018-04-24T17:29:35.730Z,35.30
2018-04-24T17:32:04.623Z,35.40
2018-04-24T17:34:33.538Z,35.60
2018-04-24T17:37:01.698Z,35.50
2018-04-24T17:39:30.590Z,36.00
2018-04-24T17:41:58.721Z,36.00
2018-04-24T17:44:26.867Z,36.40
2018-04-24T17:46:55.020Z,36.60
2018-04-24T17:49:23.161Z,37.60
2018-04-24T17:51:51.324Z,37.60
2018-04-24T17:54:20.261Z,38.20
2018-04-24T17:56:48.430Z,37.90
2018-04-24T17:59:16.611Z,39.60
2018-04-24T18:01:44.751Z,40.40
2018-04-24T18:04:12.971Z,40.60
2018-04-24T18:06:41.111Z,41.30
2018-04-24T18:09:10.016Z,42.20
2018-04-24T18:11:38.161Z,42.10
2018-04-24T18:14:06.334Z,42.90
2018-04-24T18:16:35.257Z,43.90
2018-04-24T18:19:03.407Z,43.90
2018-04-24T18:21:32.362Z,45.60
2018-04-24T18:24:00.416Z,45.50
2018-04-24T18:26:30.509Z,46.00
2018-04-24T18:28:58.614Z,46.10
2018-04-24T18:31:26.829Z,46.60
2018-04-24T18:33:55.093Z,47.20
2018-04-24T18:36:24.069Z,47.50
2018-04-24T18:38:52.219Z,47.50
2018-04-24T18:41:20.532Z,48.40
2018-04-24T18:43:49.413Z,49.80
2018-04-24T18:46:18.389Z,49.90
2018-04-24T18:48:47.318Z,49.30
2018-04-24T18:51:15.498Z,49.30
2018-04-24T18:53:43.631Z,49.90
2018-04-24T18:56:12.570Z,51.20
2018-04-24T18:58:40.721Z,51.20
2018-04-24T19:01:08.916Z,51.70
2018-04-24T19:03:37.092Z,51.60
2018-04-24T19:06:05.272Z,51.80
2018-04-24T19:08:33.411Z,51.50
2018-04-24T19:11:05.346Z,52.10
2018-04-24T19:13:34.285Z,51.70
2018-04-24T19:16:02.453Z,51.70
2018-04-24T19:18:36.132Z,53.20
2018-04-24T19:21:04.317Z,53.20
2018-04-24T19:23:32.439Z,53.90
2018-04-24T19:26:00.609Z,54.90
2018-04-24T19:28:28.788Z,55.10
2018-04-24T19:30:57.733Z,56.30
2018-04-24T19:33:25.915Z,56.20
2018-04-24T19:35:54.060Z,55.90
2018-04-24T19:38:22.249Z,56.20
2018-04-24T19:40:56.045Z,56.80
2018-04-24T19:43:24.198Z,57.30
2018-04-24T19:45:52.367Z,57.40
2018-04-24T19:48:27.083Z,57.60
2018-04-24T19:50:55.416Z,57.60
2018-04-24T19:53:23.600Z,57.80
2018-04-24T19:55:52.552Z,57.90
2018-04-24T19:58:21.541Z,57.60
2018-04-24T20:00:50.137Z,57.50
2018-04-24T20:03:18.270Z,58.00
2018-04-24T20:05:47.257Z,58.10
2018-04-24T20:08:15.737Z,58.60
2018-04-24T20:10:44.626Z,58.20
2018-04-24T20:13:12.789Z,58.20
2018-04-24T20:15:41.184Z,57.90
2018-04-24T20:18:09.431Z,58.70
2018-04-24T20:20:37.534Z,58.70
2018-04-24T20:23:05.715Z,58.90
2018-04-24T20:25:34.011Z,59.20
2018-04-24T20:28:02.142Z,59.50
2018-04-24T20:30:31.054Z,60.50
2018-04-24T20:32:59.188Z,60.50
2018-04-24T20:35:28.123Z,60.60
2018-04-24T20:37:56.290Z,60.10
2018-04-24T20:40:24.445Z,60.50
2018-04-24T20:42:53.364Z,60.60
2018-04-24T20:45:21.703Z,60.50
2018-04-24T20:47:49.847Z,60.60
2018-04-24T20:50:17.982Z,61.10
2018-04-24T20:52:46.141Z,61.90
2018-04-24T20:55:14.308Z,61.60
2018-04-24T20:57:42.496Z,61.60
2018-04-24T21:00:10.642Z,62.30
2018-04-24T21:02:38.833Z,62.10
2018-04-24T21:05:06.955Z,62.60
2018-04-24T21:07:35.715Z,62.60
2018-04-24T21:10:03.914Z,62.30
2018-04-24T21:12:32.056Z,62.80
2018-04-24T21:15:00.306Z,62.70
2018-04-24T21:17:28.445Z,63.20
2018-04-24T21:19:57.613Z,63.20
2018-04-24T21:22:25.912Z,63.20
2018-04-24T21:24:54.032Z,63.90
2018-04-24T21:27:22.183Z,63.60
2018-04-24T21:29:50.324Z,63.40
2018-04-24T21:32:18.478Z,63.50
2018-04-24T21:34:46.618Z,63.50
2018-04-24T21:37:14.875Z,63.50
2018-04-24T21:39:42.981Z,63.10
2018-04-24T21:42:11.214Z,62.70
2018-04-24T21:44:39.349Z,62.80
2018-04-24T21:47:07.469Z,62.30
2018-04-24T21:49:35.617Z,62.50
2018-04-24T21:52:04.497Z,63.00
2018-04-24T21:54:33.419Z,62.30
2018-04-24T21:57:01.555Z,62.30
2018-04-24T21:59:30.435Z,62.50
2018-04-24T22:01:59.447Z,62.20
2018-04-24T22:04:28.435Z,62.10
2018-04-24T22:06:57.352Z,62.50
2018-04-24T22:09:25.488Z,62.60
2018-04-24T22:11:54.371Z,62.80
2018-04-24T22:14:23.282Z,62.90
2018-04-24T22:16:51.459Z,62.80
2018-04-24T22:19:19.633Z,63.00
2018-04-24T22:21:47.731Z,63.00
2018-04-24T22:24:15.852Z,63.90
2018-04-24T22:26:44.782Z,63.70
2018-04-24T22:29:12.917Z,63.50
2018-04-24T22:31:41.910Z,62.90
2018-04-24T22:34:10.809Z,63.50
2018-04-24T22:36:38.937Z,63.50
2018-04-24T22:39:07.097Z,64.30
2018-04-24T22:41:35.322Z,64.70
2018-04-24T22:44:04.307Z,64.90
2018-04-24T22:46:33.299Z,64.80
2018-04-24T22:49:03.207Z,65.30
2018-04-24T22:51:32.106Z,66.20
2018-04-24T22:54:01.005Z,66.00
2018-04-24T22:56:29.978Z,66.10
2018-04-24T22:58:58.896Z,66.00
2018-04-24T23:01:27.028Z,65.90
2018-04-24T23:03:55.938Z,66.70
2018-04-24T23:06:24.819Z,66.10
2018-04-24T23:08:53.695Z,66.70
2018-04-24T23:11:33.824Z,66.70
2018-04-24T23:14:13.911Z,66.70
2018-04-24T23:16:54.732Z,67.60
2018-04-24T23:19:34.855Z,67.60
2018-04-24T23:22:02.482Z,67.90
2018-04-24T23:24:31.377Z,68.40
2018-04-24T23:27:00.311Z,68.30
2018-04-24T23:29:28.427Z,68.30
2018-04-24T23:31:56.543Z,68.40
2018-04-24T23:34:24.698Z,68.40
2018-04-24T23:36:53.683Z,69.60
2018-04-24T23:39:21.831Z,69.60
2018-04-24T23:41:50.018Z,69.70
2018-04-24T23:44:19.024Z,70.10
2018-04-24T23:46:47.910Z,70.50
2018-04-24T23:49:16.829Z,71.20
2018-04-24T23:51:44.938Z,71.10
2018-04-24T23:54:13.136Z,70.80
2018-04-24T23:56:42.120Z,70.60
2018-04-24T23:59:11.011Z,70.80
